createdAt,value
2019-02-28T00:00:40.713Z,79.43
2019-02-28T00:03:10.842Z,92.83
2019-02-28T00:05:41.280Z,97.47
2019-02-28T00:08:11.672Z,111.10
2019-02-28T00:10:42.318Z,147.60
2019-02-28T00:13:12.712Z,150.47
2019-02-28T00:15:43.113Z,176.27
2019-02-28T00:18:15.193Z,270.27
2019-02-28T00:20:45.629Z,285.40
2019-02-28T00:23:16.044Z,289.40
2019-02-28T00:25:46.487Z,278.33
2019-02-28T00:28:16.933Z,274.97
2019-02-28T00:30:47.338Z,240.60
2019-02-28T00:33:17.741Z,230.93
2019-02-28T00:35:48.141Z,225.70
2019-02-28T00:38:18.552Z,153.57
2019-02-28T00:40:48.941Z,157.67
2019-02-28T00:43:19.361Z,136.83
2019-02-28T00:45:51.467Z,105.57
2019-02-28T00:48:22.403Z,100.10
2019-02-28T00:50:52.868Z,91.37
2019-02-28T00:53:23.270Z,86.03
2019-02-28T00:55:53.660Z,96.57
2019-02-28T00:58:28.869Z,83.03
2019-02-28T01:00:58.969Z,87.60
2019-02-28T01:03:29.357Z,76.63
2019-02-28T01:05:59.778Z,79.27
2019-02-28T01:08:30.170Z,81.23
2019-02-28T01:11:00.593Z,80.57
2019-02-28T01:13:30.979Z,86.70
2019-02-28T01:16:01.418Z,83.10
2019-02-28T01:18:34.433Z,74.90
2019-02-28T01:21:03.868Z,71.70
2019-02-28T01:23:34.253Z,78.10
2019-02-28T01:26:04.639Z,68.07
2019-02-28T01:28:35.027Z,65.27
2019-02-28T01:31:05.461Z,73.03
2019-02-28T01:33:35.822Z,72.67
2019-02-28T01:36:06.300Z,81.50
2019-02-28T01:38:36.670Z,61.77
2019-02-28T01:41:08.310Z,73.00
2019-02-28T01:43:39.184Z,74.57
2019-02-28T01:46:09.604Z,72.43
2019-02-28T01:48:40.034Z,77.20
2019-02-28T01:51:10.444Z,65.17
2019-02-28T01:53:40.865Z,68.83
2019-02-28T01:56:11.287Z,66.03
2019-02-28T01:58:41.674Z,60.60
2019-02-28T02:01:12.073Z,63.93
2019-02-28T02:03:42.455Z,64.17
2019-02-28T02:06:12.829Z,61.63
2019-02-28T02:08:43.220Z,61.03
2019-02-28T02:11:13.662Z,58.27
2019-02-28T02:13:44.090Z,55.77
2019-02-28T02:16:14.462Z,50.03
2019-02-28T02:18:44.827Z,50.83
2019-02-28T02:21:15.217Z,47.47
2019-02-28T02:23:49.672Z,47.97
2019-02-28T02:26:19.064Z,49.47
2019-02-28T02:28:49.466Z,57.80
2019-02-28T02:31:19.858Z,59.00
2019-02-28T02:33:52.454Z,64.07
2019-02-28T02:36:22.389Z,72.90
2019-02-28T02:38:52.801Z,69.17
2019-02-28T02:41:23.203Z,77.23
2019-02-28T02:43:54.979Z,67.07
2019-02-28T02:46:27.362Z,66.47
2019-02-28T02:48:57.851Z,64.47
2019-02-28T02:51:28.283Z,60.50
2019-02-28T02:53:58.717Z,55.37
2019-02-28T02:56:29.153Z,48.23
2019-02-28T02:59:01.140Z,52.03
2019-02-28T03:01:31.604Z,42.70
2019-02-28T03:04:02.060Z,43.80
2019-02-28T03:06:32.496Z,47.20
2019-02-28T03:09:04.998Z,43.10
2019-02-28T03:11:35.437Z,49.63
2019-02-28T03:14:05.837Z,44.93
2019-02-28T03:16:36.229Z,44.90
2019-02-28T03:19:06.646Z,40.67
2019-02-28T03:21:37.027Z,43.53
2019-02-28T03:24:07.414Z,45.23
2019-02-28T03:26:41.583Z,40.57
2019-02-28T03:29:09.940Z,38.73
2019-02-28T03:31:40.338Z,43.20
2019-02-28T03:34:13.792Z,42.63
2019-02-28T03:36:42.818Z,45.03
2019-02-28T03:39:13.241Z,43.63
2019-02-28T03:41:43.690Z,48.50
2019-02-28T03:44:20.030Z,48.70
2019-02-28T03:46:47.978Z,33.20
2019-02-28T03:49:18.433Z,35.87
2019-02-28T03:51:48.866Z,29.60
2019-02-28T03:54:19.321Z,31.90
2019-02-28T03:56:52.699Z,30.73
2019-02-28T03:59:21.893Z,31.27
2019-02-28T04:01:52.328Z,33.50
2019-02-28T04:04:22.713Z,36.33
2019-02-28T04:06:53.128Z,40.03
2019-02-28T04:09:25.102Z,45.53
2019-02-28T04:11:55.494Z,41.30
2019-02-28T04:14:28.255Z,46.57
2019-02-28T04:16:58.029Z,38.83
2019-02-28T04:19:28.463Z,37.53
2019-02-28T04:21:59.768Z,39.20
2019-02-28T04:24:30.202Z,45.47
2019-02-28T04:27:06.265Z,54.17
2019-02-28T04:29:32.661Z,58.37
2019-02-28T04:32:03.150Z,64.27
2019-02-28T04:34:33.570Z,61.43
2019-02-28T04:37:03.987Z,52.20
2019-02-28T04:39:34.428Z,57.03
2019-02-28T04:42:05.172Z,48.27
2019-02-28T04:44:36.499Z,49.90
2019-02-28T04:47:07.653Z,46.00
2019-02-28T04:49:38.124Z,49.10
2019-02-28T04:52:11.767Z,45.07
2019-02-28T04:54:41.293Z,48.67
2019-02-28T04:57:11.774Z,40.13
2019-02-28T04:59:43.422Z,41.23
2019-02-28T05:02:13.844Z,49.60
2019-02-28T05:04:44.297Z,42.47
2019-02-28T05:07:14.751Z,46.50
2019-02-28T05:09:48.035Z,50.63
2019-02-28T05:12:17.308Z,44.03
2019-02-28T05:14:47.703Z,44.73
2019-02-28T05:17:19.317Z,40.07
2019-02-28T05:19:50.267Z,39.90
2019-02-28T05:22:20.688Z,45.40
2019-02-28T05:24:51.090Z,44.27
2019-02-28T05:27:24.423Z,43.50
2019-02-28T05:29:55.007Z,45.97
2019-02-28T05:32:25.412Z,48.33
2019-02-28T05:34:55.840Z,64.27
2019-02-28T05:37:26.341Z,54.10
2019-02-28T05:40:05.622Z,62.30
2019-02-28T05:42:31.694Z,58.63
2019-02-28T05:45:02.131Z,55.50
2019-02-28T05:47:45.766Z,54.23
2019-02-28T05:50:15.196Z,55.20
2019-02-28T05:52:43.992Z,58.57
2019-02-28T05:55:14.400Z,58.90
2019-02-28T05:57:46.495Z,42.27
2019-02-28T06:00:18.494Z,57.77
2019-02-28T06:02:48.934Z,51.87
2019-02-28T06:05:20.929Z,55.90
2019-02-28T06:07:51.332Z,39.17
2019-02-28T06:10:24.663Z,41.40
2019-02-28T06:12:53.835Z,35.67
2019-02-28T06:15:25.752Z,43.07
2019-02-28T06:17:56.279Z,38.53
2019-02-28T06:20:26.714Z,33.40
2019-02-28T06:22:57.106Z,34.27
2019-02-28T06:25:27.530Z,33.63
2019-02-28T06:27:57.979Z,41.10
2019-02-28T06:30:28.500Z,48.03
2019-02-28T06:32:59.543Z,44.73
2019-02-28T06:35:30.051Z,42.47
2019-02-28T06:38:00.487Z,38.57
2019-02-28T06:40:33.118Z,39.03
2019-02-28T06:43:03.020Z,37.07
2019-02-28T06:45:36.720Z,43.57
2019-02-28T06:48:05.528Z,39.37
2019-02-28T06:50:35.971Z,35.17
2019-02-28T06:53:06.379Z,45.43
2019-02-28T06:55:38.393Z,34.97
2019-02-28T06:58:08.816Z,41.53
2019-02-28T07:00:39.215Z,23.87
2019-02-28T07:03:10.670Z,26.33
2019-02-28T07:05:41.050Z,29.73
2019-02-28T07:08:13.736Z,30.47
2019-02-28T07:10:44.912Z,37.87
2019-02-28T07:13:16.299Z,41.43
2019-02-28T07:15:46.719Z,35.67
2019-02-28T07:18:18.920Z,35.47
2019-02-28T07:20:49.330Z,34.93
2019-02-28T07:23:22.184Z,30.37
2019-02-28T07:25:52.562Z,35.53
2019-02-28T07:28:22.964Z,29.50
2019-02-28T07:30:54.418Z,33.20
2019-02-28T07:33:24.870Z,32.97
2019-02-28T07:36:09.583Z,31.27
2019-02-28T07:38:40.723Z,38.27
2019-02-28T07:41:11.199Z,30.80
2019-02-28T07:43:45.911Z,32.23
2019-02-28T07:46:15.458Z,26.93
2019-02-28T07:48:46.044Z,28.50
2019-02-28T07:51:18.470Z,28.00
2019-02-28T07:53:49.102Z,31.03
2019-02-28T07:56:19.531Z,26.00
2019-02-28T07:58:50.030Z,28.23
2019-02-28T08:01:20.435Z,27.33
2019-02-28T08:03:50.963Z,29.83
2019-02-28T08:06:21.558Z,35.50
2019-02-28T08:08:54.702Z,32.43
2019-02-28T08:11:25.338Z,32.70
2019-02-28T08:13:55.848Z,31.47
2019-02-28T08:16:30.594Z,32.10
2019-02-28T08:19:01.390Z,31.90
2019-02-28T08:21:31.793Z,33.13
2019-02-28T08:24:02.552Z,29.67
2019-02-28T08:26:34.570Z,49.67
2019-02-28T08:29:07.971Z,40.33
2019-02-28T08:31:37.325Z,38.93
2019-02-28T08:34:10.734Z,52.07
2019-02-28T08:36:43.849Z,44.53
2019-02-28T08:39:16.196Z,51.53
2019-02-28T08:41:47.199Z,64.27
2019-02-28T08:44:23.956Z,47.63
2019-02-28T08:46:54.607Z,52.27
2019-02-28T08:49:25.041Z,43.17
2019-02-28T08:51:55.667Z,32.07
2019-02-28T08:54:27.213Z,35.90
2019-02-28T08:56:58.129Z,36.50
2019-02-28T08:59:28.604Z,31.83
2019-02-28T09:01:59.068Z,17.50
2019-02-28T09:04:29.658Z,18.57
2019-02-28T09:07:00.226Z,18.27
2019-02-28T09:09:31.679Z,15.83
2019-02-28T09:12:02.985Z,13.57
2019-02-28T09:14:33.494Z,9.07
2019-02-28T09:17:03.852Z,11.60
2019-02-28T09:19:36.059Z,8.20
2019-02-28T09:22:06.288Z,11.93
2019-02-28T09:24:36.688Z,10.37
2019-02-28T09:27:07.214Z,13.33
2019-02-28T09:29:37.639Z,15.80
2019-02-28T09:32:10.291Z,17.67
2019-02-28T09:34:41.318Z,15.67
2019-02-28T09:37:11.847Z,17.87
2019-02-28T09:39:42.306Z,19.10
2019-02-28T09:42:15.702Z,13.40
2019-02-28T09:44:46.312Z,12.60
2019-02-28T09:47:16.865Z,13.90
2019-02-28T09:49:48.005Z,17.77
2019-02-28T09:52:18.563Z,24.57
2019-02-28T09:54:49.038Z,17.63
2019-02-28T09:57:19.874Z,15.07
2019-02-28T09:59:52.082Z,17.53
2019-02-28T10:02:25.259Z,13.07
2019-02-28T10:04:55.704Z,11.30
2019-02-28T10:07:26.535Z,19.93
2019-02-28T10:09:57.585Z,14.23
2019-02-28T10:12:28.017Z,21.27
2019-02-28T10:15:00.542Z,17.83
2019-02-28T10:17:32.370Z,17.67
2019-02-28T10:20:11.421Z,16.93
2019-02-28T10:22:44.327Z,17.37
2019-02-28T10:25:14.659Z,15.77
2019-02-28T10:27:48.659Z,22.00
2019-02-28T10:30:31.236Z,22.93
2019-02-28T10:32:58.745Z,28.67
2019-02-28T10:35:29.156Z,29.10
2019-02-28T10:37:59.609Z,26.27
2019-02-28T10:40:30.969Z,18.60
2019-02-28T10:43:01.451Z,18.57
2019-02-28T10:45:31.851Z,23.40
2019-02-28T10:48:07.446Z,27.23
2019-02-28T10:50:42.256Z,29.57
2019-02-28T10:53:13.071Z,20.47
2019-02-28T10:55:43.586Z,17.60
2019-02-28T10:58:15.466Z,19.07
2019-02-28T11:00:46.631Z,22.27
2019-02-28T11:03:17.341Z,21.77
2019-02-28T11:05:53.327Z,17.03
2019-02-28T11:08:21.726Z,23.70
2019-02-28T11:10:56.595Z,22.67
2019-02-28T11:13:28.505Z,23.90
2019-02-28T11:15:59.359Z,24.77
2019-02-28T11:18:32.351Z,20.17
2019-02-28T11:21:02.863Z,29.70
2019-02-28T11:23:33.366Z,26.23
2019-02-28T11:26:06.523Z,21.77
2019-02-28T11:28:35.979Z,28.83
2019-02-28T11:31:06.525Z,29.30
2019-02-28T11:33:41.095Z,26.13
2019-02-28T11:36:11.761Z,27.47
2019-02-28T11:38:43.913Z,29.47
2019-02-28T11:41:18.578Z,29.87
2019-02-28T11:43:54.373Z,28.50
2019-02-28T11:46:25.227Z,27.90
2019-02-28T11:48:56.985Z,25.67
2019-02-28T11:51:27.649Z,28.53
2019-02-28T11:53:59.699Z,33.03
2019-02-28T11:56:30.135Z,22.33
2019-02-28T11:59:00.545Z,28.10
2019-02-28T12:01:30.946Z,23.03
2019-02-28T12:04:02.930Z,32.17
2019-02-28T12:06:34.269Z,25.80
2019-02-28T12:09:06.349Z,30.67
2019-02-28T12:11:37.220Z,21.90
2019-02-28T12:14:07.772Z,19.03
2019-02-28T12:16:41.513Z,24.37
2019-02-28T12:19:12.469Z,20.70
2019-02-28T12:22:14.730Z,25.73
2019-02-28T12:24:21.023Z,27.80
2019-02-28T12:26:55.293Z,24.07
2019-02-28T12:29:27.585Z,22.23
2019-02-28T12:31:58.964Z,27.07
2019-02-28T12:34:34.528Z,23.80
2019-02-28T12:37:05.005Z,26.67
2019-02-28T12:39:37.098Z,28.90
2019-02-28T12:42:09.233Z,23.17
2019-02-28T12:44:39.785Z,24.63
2019-02-28T12:47:10.295Z,31.07
2019-02-28T12:49:41.240Z,27.37
2019-02-28T12:52:14.608Z,26.93
2019-02-28T12:54:44.023Z,23.03
2019-02-28T12:57:14.438Z,28.30
2019-02-28T12:59:45.996Z,27.43
2019-02-28T13:02:17.153Z,23.73
2019-02-28T13:04:49.143Z,32.13
2019-02-28T13:07:20.280Z,24.27
2019-02-28T13:09:51.452Z,22.80
2019-02-28T13:12:23.608Z,25.93
2019-02-28T13:14:54.818Z,28.00
2019-02-28T13:17:25.319Z,25.60
2019-02-28T13:19:56.718Z,28.73
2019-02-28T13:22:29.503Z,25.93
2019-02-28T13:25:00.934Z,26.30
2019-02-28T13:27:32.181Z,32.97
2019-02-28T13:30:05.359Z,35.00
2019-02-28T13:32:38.133Z,32.20
2019-02-28T13:35:10.199Z,29.17
2019-02-28T13:37:44.822Z,28.90
2019-02-28T13:40:16.255Z,35.63
2019-02-28T13:42:46.902Z,31.87
2019-02-28T13:45:23.073Z,27.83
2019-02-28T13:47:50.982Z,25.63
2019-02-28T13:50:29.587Z,29.73
2019-02-28T13:53:02.618Z,29.57
2019-02-28T13:55:32.350Z,29.03
2019-02-28T13:58:03.816Z,27.40
2019-02-28T14:00:35.823Z,33.73
2019-02-28T14:03:10.527Z,32.80
2019-02-28T14:05:41.741Z,31.97
2019-02-28T14:08:12.686Z,30.83
2019-02-28T14:10:44.716Z,29.67
2019-02-28T14:13:15.314Z,30.00
2019-02-28T14:15:52.699Z,28.70
2019-02-28T14:18:20.322Z,32.23
2019-02-28T14:20:51.072Z,27.37
2019-02-28T14:23:21.774Z,31.53
2019-02-28T14:25:52.200Z,28.77
2019-02-28T14:28:22.627Z,30.93
2019-02-28T14:30:57.562Z,26.97
2019-02-28T14:33:25.317Z,27.07
2019-02-28T14:35:56.023Z,30.23
2019-02-28T14:38:29.557Z,33.73
2019-02-28T14:40:59.413Z,39.33
2019-02-28T14:43:29.994Z,40.70
2019-02-28T14:46:00.423Z,37.77
2019-02-28T14:48:30.933Z,45.53
2019-02-28T14:51:03.669Z,35.83
2019-02-28T14:53:33.688Z,38.73
2019-02-28T14:56:07.428Z,40.53
2019-02-28T14:58:38.007Z,39.57
2019-02-28T15:01:08.813Z,40.27
2019-02-28T15:03:39.323Z,40.33
2019-02-28T15:06:09.982Z,42.47
2019-02-28T15:08:40.475Z,43.77
2019-02-28T15:11:11.525Z,45.03
2019-02-28T15:13:41.963Z,41.27
2019-02-28T15:16:13.773Z,50.33
2019-02-28T15:18:47.134Z,48.00
2019-02-28T15:21:16.469Z,45.77
2019-02-28T15:23:48.478Z,45.53
2019-02-28T15:26:18.935Z,46.43
2019-02-28T15:28:49.541Z,47.33
2019-02-28T15:31:20.106Z,53.17
2019-02-28T15:33:50.608Z,54.93
2019-02-28T15:36:24.164Z,51.03
2019-02-28T15:38:54.759Z,53.87
2019-02-28T15:41:25.447Z,48.47
2019-02-28T15:43:56.042Z,53.43
2019-02-28T15:46:29.487Z,58.23
2019-02-28T15:48:59.889Z,57.53
2019-02-28T15:51:30.408Z,47.63
2019-02-28T15:54:01.070Z,51.07
2019-02-28T15:56:31.494Z,56.40
2019-02-28T15:59:03.489Z,71.83
2019-02-28T16:01:37.234Z,70.93
2019-02-28T16:04:07.872Z,76.53
2019-02-28T16:06:38.368Z,53.97
2019-02-28T16:09:11.519Z,49.93
2019-02-28T16:11:43.135Z,51.70
2019-02-28T16:14:14.776Z,45.87
2019-02-28T16:16:45.590Z,51.80
2019-02-28T16:19:18.898Z,49.87
2019-02-28T16:21:48.255Z,51.37
2019-02-28T16:24:18.682Z,48.63
2019-02-28T16:26:56.765Z,48.40
2019-02-28T16:29:35.484Z,59.70
2019-02-28T16:32:05.998Z,52.40
2019-02-28T16:34:38.737Z,59.63
2019-02-28T16:37:10.246Z,59.33
2019-02-28T16:39:40.744Z,51.23
2019-02-28T16:42:14.651Z,54.50
2019-02-28T16:44:46.866Z,56.27
2019-02-28T16:47:17.332Z,52.67
2019-02-28T16:49:49.051Z,53.90
2019-02-28T16:52:19.506Z,50.80
2019-02-28T16:54:50.026Z,56.47
2019-02-28T16:57:22.724Z,62.33
2019-02-28T16:59:53.193Z,55.30
2019-02-28T17:02:26.434Z,48.07
2019-02-28T17:04:59.670Z,51.53
2019-02-28T17:07:30.365Z,48.47
2019-02-28T17:10:01.692Z,46.17
2019-02-28T17:12:36.225Z,48.73
2019-02-28T17:15:12.523Z,44.20
2019-02-28T17:17:46.953Z,46.63
2019-02-28T17:20:16.871Z,49.43
2019-02-28T17:22:47.362Z,45.43
2019-02-28T17:25:18.497Z,48.00
2019-02-28T17:27:51.594Z,39.47
2019-02-28T17:30:36.245Z,43.67
2019-02-28T17:33:09.880Z,40.73
2019-02-28T17:35:47.826Z,42.33
2019-02-28T17:38:22.103Z,38.57
2019-02-28T17:40:53.496Z,41.77
2019-02-28T17:43:25.255Z,43.40
2019-02-28T17:45:55.810Z,42.70
2019-02-28T17:49:02.451Z,38.80
2019-02-28T17:52:01.065Z,43.07
2019-02-28T17:54:37.734Z,48.80
2019-02-28T17:57:18.476Z,46.73
2019-02-28T18:00:16.138Z,43.03
2019-02-28T18:03:20.346Z,36.53
2019-02-28T18:06:11.937Z,39.13
2019-02-28T18:08:49.847Z,43.77
2019-02-28T18:11:51.414Z,41.83
2019-02-28T18:14:31.211Z,39.20
2019-02-28T18:17:38.300Z,40.20
2019-02-28T18:20:20.937Z,37.67
2019-02-28T18:23:04.659Z,39.70
2019-02-28T18:25:41.149Z,36.30
2019-02-28T18:28:18.936Z,40.57
2019-02-28T18:31:09.672Z,38.50
2019-02-28T18:33:45.127Z,35.20
2019-02-28T18:36:18.056Z,43.20
2019-02-28T18:38:51.271Z,39.90
2019-02-28T18:41:29.274Z,41.50
2019-02-28T18:44:03.307Z,40.83
2019-02-28T18:46:31.920Z,38.77
2019-02-28T18:49:02.314Z,37.33
2019-02-28T18:51:32.719Z,35.20
2019-02-28T18:54:04.332Z,40.83
2019-02-28T18:56:34.861Z,47.43
2019-02-28T18:59:05.269Z,39.83
2019-02-28T19:01:37.286Z,42.50
2019-02-28T19:04:07.792Z,45.90
2019-02-28T19:06:39.204Z,46.93
2019-02-28T19:09:23.104Z,40.20
2019-02-28T19:11:53.638Z,45.07
2019-02-28T19:14:25.427Z,40.60
2019-02-28T19:16:55.896Z,44.43
2019-02-28T19:19:28.457Z,42.37
2019-02-28T19:22:01.850Z,43.73
2019-02-28T19:24:35.240Z,44.80
2019-02-28T19:27:07.179Z,40.33
2019-02-28T19:29:37.689Z,40.90
2019-02-28T19:32:08.388Z,49.00
2019-02-28T19:34:38.813Z,40.93
2019-02-28T19:37:09.319Z,47.50
2019-02-28T19:39:39.767Z,48.37
2019-02-28T19:42:11.782Z,41.77
2019-02-28T19:44:43.752Z,45.07
2019-02-28T19:47:14.209Z,46.17
2019-02-28T19:49:44.626Z,49.50
2019-02-28T19:52:15.071Z,45.43
2019-02-28T19:54:45.558Z,48.27
2019-02-28T19:57:15.999Z,49.67
2019-02-28T19:59:46.410Z,49.07
2019-02-28T20:02:20.073Z,47.57
2019-02-28T20:04:50.540Z,46.87
2019-02-28T20:07:20.985Z,40.73
2019-02-28T20:09:53.251Z,45.17
2019-02-28T20:12:23.693Z,39.77
2019-02-28T20:14:54.135Z,45.77
2019-02-28T20:17:24.682Z,44.93
2019-02-28T20:19:55.740Z,39.33
2019-02-28T20:22:26.263Z,50.87
2019-02-28T20:24:58.160Z,45.00
2019-02-28T20:27:30.175Z,39.60
2019-02-28T20:30:02.233Z,44.70
2019-02-28T20:32:32.619Z,47.30
2019-02-28T20:35:03.098Z,40.83
2019-02-28T20:37:33.537Z,47.30
2019-02-28T20:40:06.142Z,48.87
2019-02-28T20:42:36.584Z,43.53
2019-02-28T20:45:10.170Z,44.07
2019-02-28T20:47:40.565Z,40.60
2019-02-28T20:50:14.198Z,37.43
2019-02-28T20:52:44.621Z,36.67
2019-02-28T20:55:15.044Z,37.77
2019-02-28T20:57:46.445Z,37.80
2019-02-28T21:00:19.325Z,39.13
2019-02-28T21:02:51.496Z,36.80
2019-02-28T21:05:24.787Z,35.40
2019-02-28T21:07:56.681Z,37.93
2019-02-28T21:10:27.236Z,36.33
2019-02-28T21:12:57.700Z,37.90
2019-02-28T21:15:28.077Z,39.97
2019-02-28T21:17:58.519Z,43.43
2019-02-28T21:20:31.706Z,43.20
2019-02-28T21:23:02.063Z,46.40
2019-02-28T21:25:32.602Z,45.70
2019-02-28T21:28:04.580Z,39.83
2019-02-28T21:30:35.032Z,45.97
2019-02-28T21:33:05.490Z,46.10
2019-02-28T21:35:35.873Z,44.90
2019-02-28T21:38:06.369Z,47.43
2019-02-28T21:40:36.788Z,47.80
2019-02-28T21:43:07.172Z,50.23
2019-02-28T21:45:37.574Z,54.50
2019-02-28T21:48:07.969Z,53.03
2019-02-28T21:50:38.423Z,51.83
2019-02-28T21:53:08.894Z,50.37
2019-02-28T21:55:39.339Z,49.33
2019-02-28T21:58:09.759Z,52.07
2019-02-28T22:00:40.214Z,53.03
2019-02-28T22:03:10.663Z,38.20
2019-02-28T22:05:41.046Z,40.23
2019-02-28T22:08:11.446Z,41.33
2019-02-28T22:10:41.858Z,42.87
2019-02-28T22:13:14.733Z,42.53
2019-02-28T22:15:45.140Z,36.90
2019-02-28T22:18:15.533Z,34.93
2019-02-28T22:20:45.952Z,38.67
2019-02-28T22:23:16.382Z,35.90
2019-02-28T22:25:46.795Z,35.37
2019-02-28T22:28:17.240Z,36.73
2019-02-28T22:30:49.159Z,37.80
2019-02-28T22:33:37.164Z,33.80
2019-02-28T22:36:14.912Z,39.63
2019-02-28T22:38:46.908Z,33.77
2019-02-28T22:41:17.287Z,35.97
2019-02-28T22:43:47.714Z,34.60
2019-02-28T22:46:18.164Z,39.30
2019-02-28T22:48:48.569Z,35.20
2019-02-28T22:51:18.951Z,31.13
2019-02-28T22:53:49.424Z,38.03
2019-02-28T22:56:19.789Z,37.77
2019-02-28T22:58:50.214Z,35.37
2019-02-28T23:01:24.069Z,27.90
2019-02-28T23:03:56.936Z,34.27
2019-02-28T23:06:27.349Z,25.50
2019-02-28T23:08:57.752Z,34.60
2019-02-28T23:11:28.195Z,32.87
2019-02-28T23:13:58.597Z,39.63
2019-02-28T23:16:29.038Z,34.60
2019-02-28T23:18:59.422Z,30.50
2019-02-28T23:21:29.842Z,38.93
2019-02-28T23:24:00.284Z,36.13
2019-02-28T23:26:30.689Z,39.03
2019-02-28T23:29:04.225Z,45.57
2019-02-28T23:31:49.676Z,50.30
2019-02-28T23:34:26.165Z,44.27
2019-02-28T23:36:56.570Z,42.50
2019-02-28T23:39:27.000Z,44.53
2019-02-28T23:41:57.434Z,44.83
2019-02-28T23:44:27.826Z,45.33
2019-02-28T23:46:58.227Z,41.53
2019-02-28T23:49:28.612Z,39.37
2019-02-28T23:51:59.018Z,42.43
2019-02-28T23:54:29.431Z,49.17
2019-02-28T23:56:59.823Z,45.43
2019-02-28T23:59:30.270Z,46.17
